Nearby METAR Reports

 

LGBL - Nea Anchialos, Greece
Distance from station: SW 15km
Updated: 03/08/2015 23:50
Few Clouds
Few Clouds
 Wind from NW
Wind: NW 9 km/h
Temperature: 25°C
Dew Point: 18°C
Humidity: 65%
Barometer: 1015 hPa
Clouds: Few Clouds
Visibility: 10 km
Cloud details: Few Clouds 1067 m
2015/08/03 20:50 LGBL 032050Z 32005KT 9999 FEW035 25/18 Q1015
LGSK - Skiathos Island, Greece
Distance from station: ESE 51km
Updated: 03/08/2015 20:50
NOT Current
Few Clouds
Few Clouds
 Wind from calm
Wind: Calm
Temperature: 27°C
Heat Index: 29°C
Dew Point: 20°C
Humidity: 66%
Barometer: 1013 hPa
Clouds: Few Clouds
Visibility: 10 km
Cloud details: Few Clouds 610 m
2015/08/03 17:50 LGSK 031750Z 00000KT 9999 FEW020 27/20 Q1013
 
LGTS - Thessaloniki/Mik, Greece
Distance from station: N 135km
Updated: 03/08/2015 23:50
Few Clouds
Few Clouds
 Wind from NNE
Wind: NNE 20 km/h
Temperature: 25°C
Dew Point: 17°C
Humidity: 61%
Barometer: 1014 hPa
Clouds: Few Clouds
Visibility: 10 km
Cloud details: Few Clouds 914 m
2015/08/03 20:50 LGTS 032050Z 03011KT 9999 FEW030 25/17 Q1014 NOSIG
LGSY - Skiros, Greece
Distance from station: ESE 139km
Updated: 03/08/2015 22:50
NOT Current
Clear
Clear
 Wind from NW
Wind: NW 13 km/h
Temperature: 25°C
Dew Point: 22°C
Humidity: 83%
Barometer: 1012 hPa
Summary: Clear
Visibility: greater than 10 km
2015/08/03 19:50 LGSY 031950Z 32007KT CAVOK 25/22 Q1012 BLU
 
LGKZ - Kozani (civ/Army, Greece
Distance from station: NW 144km
Updated: 03/08/2015 23:50

 Wind from calm
Wind: Calm
Temperature: 19°C
Dew Point: 15°C
Humidity: 78%
Barometer: 1019 hPa
2015/08/03 20:50 LGKZ 032050Z AUTO 00000KT //// // ////// 19/15 Q1019 RE//
LGEL - Elefsis (hel-Afb, Greece
Distance from station: SSE 147km
Updated: 03/08/2015 23:50
Clear
Clear
 Wind from varies
Wind: varies 6 km/h
Temperature: 27°C
Heat Index: 27°C
Dew Point: 14°C
Humidity: 45%
Barometer: 1013 hPa
Summary: Clear
Visibility: greater than 10 km
2015/08/03 20:50 LGEL 032050Z VRB03KT CAVOK 27/14 Q1013
 
LGAV - Athens/Elef-Ven, Greece
Distance from station: SSE 176km
Updated: 03/08/2015 23:50
Clear
Clear
 Wind from N
Wind: N 13 km/h
Temperature: 27°C
Heat Index: 28°C
Dew Point: 17°C
Humidity: 54%
Barometer: 1013 hPa
Summary: Clear
Visibility: greater than 10 km
2015/08/03 20:50 LGAV 032050Z 01007KT CAVOK 27/17 Q1013 NOSIG
LGRX - Araxos (civ/Afb), Greece
Distance from station: SW 182km
Updated: 03/08/2015 23:50
Few Clouds
Few Clouds
 Wind from calm
Wind: Calm
Temperature: 28°C
Heat Index: 32°C
Dew Point: 24°C
Humidity: 79%
Barometer: 1012 hPa
Clouds: Few Clouds
Visibility: 10 km
Cloud details: Few Clouds 2438 m
2015/08/03 20:50 LGRX 032050Z 00000KT 9999 FEW080 28/24 Q1012
 
LGIO - Ioannina, Greece
Distance from station: WNW 187km
Updated: 03/08/2015 23:50

 Wind from varies
Wind: varies 6 km/h
Temperature: 20°C
Dew Point: 18°C
Humidity: 88%
Barometer: 1016 hPa
2015/08/03 20:50 LGIO 032050Z AUTO VRB03KT //// // ////// 20/18 Q1016 RE//
LGPZ - Preveza/Aktion, Greece
Distance from station: WSW 191km
Updated: 03/08/2015 23:50
Few Clouds
Few Clouds
 Wind from E
Wind: E 15 km/h
Temperature: 27°C
Heat Index: 28°C
Dew Point: 18°C
Humidity: 58%
Barometer: 1012 hPa
Clouds: Few Clouds
Visibility: 10 km
Cloud details: Few Clouds 610 m
2015/08/03 20:50 LGPZ 032050Z 08008KT 9999 FEW020 27/18 Q1012
 
LGLM - Limnos Island Ar, Greece
Distance from station: ENE 209km
Updated: 03/08/2015 23:50

 Wind from NNE
Wind: NNE 17 km/h
Temperature: 26°C
Dew Point: 20°C
Humidity: 70%
Barometer: 1013 hPa
2015/08/03 20:50 LGLM 032050Z AUTO 03009KT //// // ////// 26/20 Q1013 RE//
LGAD - Andravida (civ/A, Greece
Distance from station: SW 211km
Updated: 03/08/2015 23:50
Few Clouds
Few Clouds
 Wind from calm
Wind: Calm
Temperature: 26°C
Dew Point: 22°C
Humidity: 79%
Barometer: 1012 hPa
Clouds: Few Clouds
Visibility: 10 km
Cloud details: Few Clouds 610 m
2015/08/03 20:50 LGAD 032050Z 00000KT 9999 FEW020 26/22 Q1012
 
LGKV - Kavala/Chrisoupo, Greece
Distance from station: NE 230km
Updated: 03/08/2015 23:50
Clear
Clear
 Wind from calm
Wind: Calm
Temperature: 25°C
Dew Point: 22°C
Humidity: 83%
Barometer: 1014 hPa
Summary: Clear
Visibility: greater than 10 km
2015/08/03 20:50 LGKV 032050Z 00000KT CAVOK 25/22 Q1014
LGKF - Kefallinia, Greece
Distance from station: WSW 249km
Updated: 03/08/2015 21:50
NOT Current
Partly cloudy
Partly cloudy
 Wind from W
Wind: W 9 km/h
Clouds: Partly cloudy
Visibility: 10 km
Cloud details: Partly cloudy 762 m
2015/08/03 18:50 LGKF 031850Z 28005KT 9999 SCT025 FEW O70 29/25 Q1012
 
LGZA - Zakinthos Airpor, Greece
Distance from station: SW 249km
Updated: 03/08/2015 23:50

 Wind from varies
Wind: varies 6 km/h
Temperature: 27°C
Heat Index: 29°C
Dew Point: 22°C
Humidity: 74%
Barometer: 1012 hPa
2015/08/03 20:50 LGZA 032050Z AUTO VRB03KT //// // ////// 27/22 Q1012 RE//
LGKL - Kalamata (hel-Af, Greece
Distance from station: SSW 261km
Updated: 03/08/2015 23:50
Few Clouds
Few Clouds
 Wind from calm
Wind: Calm
Temperature: 26°C
Dew Point: 24°C
Humidity: 89%
Barometer: 1012 hPa
Clouds: Few Clouds
Visibility: 10 km
Cloud details: Few Clouds 914 m
2015/08/03 20:50 LGKL 032050Z 00000KT 9999 FEW030 26/24 Q1012
 
LGKR - Ioannis Kapodist, Greece
Distance from station: W 261km
Updated: 03/08/2015 23:50
Partly cloudy
Partly cloudy
 Wind from calm
Wind: Calm
Temperature: 28°C
Heat Index: 32°C
Dew Point: 25°C
Humidity: 84%
Barometer: 1011 hPa
Clouds: Partly cloudy
Visibility: 10 km
Cloud details: Few Clouds 610 m
Partly cloudy 762 m
2015/08/03 20:50 LGKR 032050Z 00000KT 9999 FEW020 SCT025 28/25 Q1011 NOSIG
LGSO - Syros, Greece
Distance from station: SE 274km
Updated: 03/08/2015 23:50

 Wind from calm
Wind: Calm
Temperature: 25°C
Dew Point: 20°C
Humidity: 74%
Barometer: 1012 hPa
2015/08/03 20:50 LGSO 032050Z AUTO 00000KT //// // ////// 25/20 Q1012 RE//
 
LGMK - Mikonos Island, Greece
Distance from station: SE 296km
Updated: 03/08/2015 22:50
NOT Current
Clear
Clear
 Wind from NNW
Wind: NNW 30 km/h, Gust: 48 km/h
Temperature: 25°C
Dew Point: 19°C
Humidity: 69%
Barometer: 1012 hPa
Summary: Clear
Visibility: greater than 10 km
2015/08/03 19:50 LGMK 031950Z 34016G26KT CAVOK 25/19 Q1012